createdAt,value
2023-07-14T00:00:44.405Z,3.53
2023-07-14T00:03:18.063Z,3.92
2023-07-14T00:05:46.205Z,3.72
2023-07-14T00:08:18.843Z,3.38
2023-07-14T00:10:47.267Z,3.50
2023-07-14T00:13:17.859Z,3.20
2023-07-14T00:15:45.633Z,3.53
2023-07-14T00:18:19.374Z,3.50
2023-07-14T00:20:47.892Z,3.67
2023-07-14T00:23:17.090Z,3.72
2023-07-14T00:25:44.962Z,3.60
2023-07-14T00:28:19.716Z,3.88
2023-07-14T00:30:47.919Z,4.45
2023-07-14T00:33:19.458Z,3.42
2023-07-14T00:35:48.734Z,3.80
2023-07-14T00:38:16.872Z,3.60
2023-07-14T00:40:46.522Z,3.20
2023-07-14T00:43:19.083Z,3.63
2023-07-14T00:45:50.434Z,3.80
2023-07-14T00:48:22.090Z,3.33
2023-07-14T00:50:55.493Z,3.80
2023-07-14T00:55:58.428Z,3.45
2023-07-14T00:58:28.178Z,3.70
2023-07-14T01:01:12.652Z,3.97
2023-07-14T01:03:42.820Z,3.63
2023-07-14T01:06:14.766Z,3.90
2023-07-14T01:08:52.836Z,4.88
2023-07-14T01:11:23.849Z,4.45
2023-07-14T01:13:51.737Z,5.20
2023-07-14T01:16:21.640Z,4.93
2023-07-14T01:18:51.859Z,4.43
2023-07-14T01:21:23.238Z,5.15
2023-07-14T01:24:05.734Z,4.97
2023-07-14T01:26:52.390Z,5.00
2023-07-14T01:29:22.157Z,6.50
2023-07-14T01:31:50.815Z,6.13
2023-07-14T01:34:19.374Z,5.65
2023-07-14T01:36:47.766Z,5.38
2023-07-14T01:39:15.737Z,5.82
2023-07-14T01:41:45.182Z,6.07
2023-07-14T01:44:20.835Z,5.97
2023-07-14T01:46:50.274Z,5.93
2023-07-14T01:49:32.256Z,6.78
2023-07-14T01:52:02.593Z,6.30
2023-07-14T01:54:36.233Z,6.43
2023-07-14T01:57:14.080Z,6.88
2023-07-14T01:59:45.477Z,6.88
2023-07-14T02:02:17.819Z,6.80
2023-07-14T02:04:48.217Z,7.38
2023-07-14T02:07:17.042Z,6.95
2023-07-14T02:09:46.565Z,7.32
2023-07-14T02:12:18.562Z,7.40
2023-07-14T02:14:50.930Z,6.88
2023-07-14T02:17:26.586Z,7.50
2023-07-14T02:19:55.451Z,6.88
2023-07-14T02:22:24.462Z,7.50
2023-07-14T02:24:53.525Z,7.15
2023-07-14T02:27:22.678Z,7.00
2023-07-14T02:29:50.473Z,6.88
2023-07-14T02:32:25.273Z,6.90
2023-07-14T02:34:57.504Z,6.97
2023-07-14T02:37:41.733Z,7.03
2023-07-14T02:40:13.579Z,7.60
2023-07-14T02:42:42.771Z,8.60
2023-07-14T02:45:11.267Z,7.90
2023-07-14T02:47:42.336Z,8.02
2023-07-14T02:50:10.645Z,7.30
2023-07-14T02:52:38.414Z,7.85
2023-07-14T02:55:08.259Z,8.05
2023-07-14T02:57:36.419Z,7.55
2023-07-14T03:00:08.988Z,8.13
2023-07-14T03:02:37.083Z,8.27
2023-07-14T03:05:05.728Z,8.65
2023-07-14T03:07:35.685Z,8.55
2023-07-14T03:10:04.070Z,8.45
2023-07-14T03:12:32.164Z,7.85
2023-07-14T03:15:00.319Z,8.30
2023-07-14T03:17:29.503Z,8.35
2023-07-14T03:19:57.326Z,8.30
2023-07-14T03:22:27.291Z,8.82
2023-07-14T03:24:55.163Z,8.85
2023-07-14T03:27:22.865Z,8.45
2023-07-14T03:29:50.663Z,8.32
2023-07-14T03:32:18.554Z,8.45
2023-07-14T03:34:48.186Z,8.05
2023-07-14T03:37:16.016Z,8.63
2023-07-14T03:39:43.942Z,7.68
2023-07-14T03:42:11.701Z,8.63
2023-07-14T03:44:39.488Z,8.85
2023-07-14T03:47:08.306Z,8.02
2023-07-14T03:49:36.985Z,8.43
2023-07-14T03:52:07.208Z,7.30
2023-07-14T03:54:35.670Z,7.82
2023-07-14T03:57:04.149Z,7.88
2023-07-14T03:59:32.141Z,8.38
2023-07-14T04:02:02.552Z,7.35
2023-07-14T04:04:31.585Z,7.07
2023-07-14T04:07:03.138Z,7.47
2023-07-14T04:09:32.593Z,6.85
2023-07-14T04:12:00.368Z,7.65
2023-07-14T04:14:28.084Z,7.30
2023-07-14T04:16:56.069Z,6.97
2023-07-14T04:19:24.100Z,7.15
2023-07-14T04:21:52.029Z,7.20
2023-07-14T04:24:19.784Z,6.03
2023-07-14T04:26:48.944Z,6.72
2023-07-14T04:29:16.686Z,6.50
2023-07-14T04:31:44.467Z,6.70
2023-07-14T04:34:12.388Z,6.00
2023-07-14T04:36:40.200Z,5.47
2023-07-14T04:39:11.781Z,5.93
2023-07-14T04:41:39.923Z,5.57
2023-07-14T04:44:13.954Z,5.40
2023-07-14T04:46:42.691Z,5.32
2023-07-14T04:49:11.217Z,5.18
2023-07-14T04:51:40.184Z,4.80
2023-07-14T04:54:08.484Z,5.20
2023-07-14T04:56:37.486Z,4.70
2023-07-14T04:59:07.793Z,5.30
2023-07-14T05:01:37.338Z,5.20
2023-07-14T05:04:06.180Z,4.53
2023-07-14T05:06:34.055Z,4.95
2023-07-14T05:09:02.048Z,4.95
2023-07-14T05:11:30.042Z,4.38
2023-07-14T05:13:58.275Z,4.95
2023-07-14T05:16:26.175Z,4.70
2023-07-14T05:18:55.481Z,3.88
2023-07-14T05:21:23.306Z,3.88
2023-07-14T05:23:51.076Z,4.65
2023-07-14T05:26:18.915Z,4.07
2023-07-14T05:28:46.887Z,3.97
2023-07-14T05:31:14.780Z,4.07
2023-07-14T05:33:42.943Z,4.28
2023-07-14T05:36:12.400Z,4.15
2023-07-14T05:38:40.482Z,4.18
2023-07-14T05:41:09.569Z,3.97
2023-07-14T05:43:38.227Z,4.13
2023-07-14T05:46:06.462Z,3.80
2023-07-14T05:48:34.355Z,4.30
2023-07-14T05:51:02.157Z,4.45
2023-07-14T05:53:31.602Z,3.83
2023-07-14T05:55:59.641Z,3.97
2023-07-14T05:58:27.511Z,4.00
2023-07-14T06:00:56.479Z,3.63
2023-07-14T06:03:24.596Z,4.07
2023-07-14T06:05:52.714Z,3.58
2023-07-14T06:08:23.685Z,4.18
2023-07-14T06:10:53.662Z,3.80
2023-07-14T06:13:21.522Z,3.70
2023-07-14T06:15:51.473Z,3.67
2023-07-14T06:18:20.461Z,3.70
2023-07-14T06:20:48.267Z,3.33
2023-07-14T06:23:16.168Z,4.15
2023-07-14T06:25:44.744Z,4.28
2023-07-14T06:28:14.073Z,3.85
2023-07-14T06:30:42.278Z,3.72
2023-07-14T06:33:11.388Z,4.53
2023-07-14T06:35:39.566Z,4.20
2023-07-14T06:38:08.306Z,4.18
2023-07-14T06:40:36.497Z,3.85
2023-07-14T06:43:08.761Z,4.82
2023-07-14T06:45:38.880Z,3.78
2023-07-14T06:48:07.684Z,3.88
2023-07-14T06:50:38.776Z,3.70
2023-07-14T06:53:06.864Z,3.85
2023-07-14T06:55:34.870Z,4.23
2023-07-14T06:58:04.289Z,4.18
2023-07-14T07:00:32.397Z,3.60
2023-07-14T07:03:01.774Z,3.30
2023-07-14T07:05:29.655Z,3.70
2023-07-14T07:07:57.474Z,3.72
2023-07-14T07:10:25.381Z,3.42
2023-07-14T07:12:53.203Z,3.30
2023-07-14T07:15:21.239Z,3.08
2023-07-14T07:17:49.282Z,3.40
2023-07-14T07:20:18.605Z,3.20
2023-07-14T07:22:47.960Z,2.85
2023-07-14T07:25:17.633Z,3.75
2023-07-14T07:27:46.367Z,3.53
2023-07-14T07:30:16.054Z,3.42
2023-07-14T07:32:44.092Z,2.80
2023-07-14T07:35:11.960Z,2.75
2023-07-14T07:37:41.614Z,2.90
2023-07-14T07:40:10.826Z,3.50
2023-07-14T07:42:38.716Z,3.75
2023-07-14T07:45:08.192Z,3.70
2023-07-14T07:47:36.745Z,3.47
2023-07-14T07:50:06.227Z,3.67
2023-07-14T07:52:34.858Z,3.22
2023-07-14T07:55:04.639Z,3.17
2023-07-14T07:57:33.862Z,3.33
2023-07-14T08:00:02.084Z,3.65
2023-07-14T08:02:42.498Z,3.55
2023-07-14T08:05:13.509Z,3.70
2023-07-14T08:07:41.824Z,4.10
2023-07-14T08:10:11.566Z,4.32
2023-07-14T08:12:39.394Z,4.05
2023-07-14T08:15:08.409Z,3.97
2023-07-14T08:17:53.995Z,4.80
2023-07-14T08:20:22.162Z,5.43
2023-07-14T08:22:50.101Z,6.07
2023-07-14T08:25:19.426Z,6.75
2023-07-14T08:27:47.566Z,6.60
2023-07-14T08:30:15.780Z,5.82
2023-07-14T08:32:43.845Z,5.90
2023-07-14T08:35:11.973Z,5.40
2023-07-14T08:37:39.803Z,5.93
2023-07-14T08:40:11.957Z,5.63
2023-07-14T08:42:52.201Z,4.43
2023-07-14T08:45:37.211Z,4.97
2023-07-14T08:48:20.250Z,3.90
2023-07-14T08:50:51.986Z,5.07
2023-07-14T08:53:23.789Z,3.70
2023-07-14T08:55:55.312Z,3.78
2023-07-14T08:58:29.248Z,4.50
2023-07-14T09:01:10.048Z,3.63
2023-07-14T09:03:47.362Z,2.63
2023-07-14T09:06:25.885Z,2.60
2023-07-14T09:08:54.920Z,2.63
2023-07-14T09:11:46.419Z,2.72
2023-07-14T09:14:32.742Z,2.97
2023-07-14T09:17:08.216Z,2.30
2023-07-14T09:19:45.786Z,2.83
2023-07-14T09:22:19.397Z,2.67
2023-07-14T09:24:58.595Z,2.40
2023-07-14T09:27:29.761Z,3.05
2023-07-14T09:30:01.108Z,3.42
2023-07-14T09:32:33.982Z,2.72
2023-07-14T09:35:10.742Z,3.50
2023-07-14T09:37:45.007Z,2.50
2023-07-14T09:40:20.308Z,2.83
2023-07-14T09:42:52.408Z,2.75
2023-07-14T09:45:26.013Z,2.65
2023-07-14T09:47:58.102Z,2.67
2023-07-14T09:50:27.600Z,3.25
2023-07-14T09:52:58.071Z,2.50
2023-07-14T09:55:27.524Z,2.60
2023-07-14T09:58:10.995Z,2.25
2023-07-14T10:00:42.769Z,2.35
2023-07-14T10:03:22.862Z,2.65
2023-07-14T10:06:04.308Z,3.33
2023-07-14T10:08:52.484Z,2.92
2023-07-14T10:11:25.405Z,2.90
2023-07-14T10:14:00.748Z,2.60
2023-07-14T10:16:33.392Z,3.00
2023-07-14T10:19:09.258Z,3.05
2023-07-14T10:21:37.698Z,3.55
2023-07-14T10:24:08.535Z,2.78
2023-07-14T10:26:38.745Z,2.88
2023-07-14T10:29:08.324Z,2.28
2023-07-14T10:31:42.962Z,2.42
2023-07-14T10:34:48.497Z,3.40
2023-07-14T10:37:25.514Z,2.78
2023-07-14T10:39:59.744Z,2.60
2023-07-14T10:42:36.512Z,2.60
2023-07-14T10:45:06.079Z,2.70
2023-07-14T10:47:48.902Z,2.85
2023-07-14T10:50:21.375Z,2.83
2023-07-14T10:53:08.118Z,2.95
2023-07-14T10:55:40.878Z,3.33
2023-07-14T10:58:15.740Z,3.05
2023-07-14T11:00:47.469Z,3.28
2023-07-14T11:03:26.706Z,3.20
2023-07-14T11:06:00.402Z,3.15
2023-07-14T11:08:31.624Z,3.42
2023-07-14T11:11:08.015Z,3.03
2023-07-14T11:13:45.986Z,2.72
2023-07-14T11:16:23.416Z,2.88
2023-07-14T11:19:00.845Z,3.05
2023-07-14T11:21:36.152Z,2.97
2023-07-14T11:24:18.028Z,2.90
2023-07-14T11:27:07.223Z,3.40
2023-07-14T11:29:44.479Z,3.13
2023-07-14T11:32:21.842Z,3.75
2023-07-14T11:35:08.553Z,2.78
2023-07-14T11:37:49.282Z,2.95
2023-07-14T11:40:22.562Z,3.08
2023-07-14T11:45:24.648Z,2.92
2023-07-14T11:47:53.334Z,3.00
2023-07-14T11:50:41.901Z,3.15
2023-07-14T11:53:20.777Z,3.00
2023-07-14T11:55:52.184Z,2.75
2023-07-14T11:58:28.626Z,3.28
2023-07-14T12:01:01.807Z,3.15
2023-07-14T12:03:35.921Z,2.72
2023-07-14T12:06:27.281Z,3.00
2023-07-14T12:09:12.087Z,3.58
2023-07-14T12:11:57.765Z,2.90
2023-07-14T12:14:32.315Z,2.45
2023-07-14T12:17:02.036Z,3.88
2023-07-14T12:19:33.451Z,2.97
2023-07-14T12:22:11.073Z,2.80
2023-07-14T12:24:45.187Z,2.70
2023-07-14T12:27:26.404Z,2.95
2023-07-14T12:30:04.408Z,2.92
2023-07-14T12:32:32.242Z,3.05
2023-07-14T12:35:00.005Z,3.25
2023-07-14T12:37:34.886Z,3.72
2023-07-14T12:40:05.220Z,3.20
2023-07-14T12:42:34.293Z,3.00
2023-07-14T12:45:03.119Z,2.92
2023-07-14T12:47:34.438Z,3.78
2023-07-14T12:50:02.384Z,3.45
2023-07-14T12:52:35.882Z,3.08
2023-07-14T12:55:11.949Z,2.80
2023-07-14T12:57:40.334Z,3.20
2023-07-14T13:00:23.468Z,3.33
2023-07-14T13:02:53.014Z,3.55
2023-07-14T13:05:22.495Z,3.25
2023-07-14T13:07:54.078Z,3.47
2023-07-14T13:10:26.043Z,3.47
2023-07-14T13:12:55.612Z,3.38
2023-07-14T13:15:28.339Z,3.03
2023-07-14T13:17:58.521Z,3.33
2023-07-14T13:20:31.598Z,3.72
2023-07-14T13:23:23.220Z,3.88
2023-07-14T13:25:57.688Z,3.85
2023-07-14T13:28:33.784Z,4.10
2023-07-14T13:31:07.798Z,3.63
2023-07-14T13:33:35.875Z,4.40
2023-07-14T13:36:08.991Z,4.03
2023-07-14T13:38:39.853Z,3.83
2023-07-14T13:41:18.270Z,4.43
2023-07-14T13:43:47.935Z,4.13
2023-07-14T13:46:21.747Z,3.65
2023-07-14T13:48:49.642Z,4.05
2023-07-14T13:51:22.184Z,4.03
2023-07-14T13:53:51.943Z,3.90
2023-07-14T13:56:21.754Z,4.13
2023-07-14T13:58:50.947Z,4.25
2023-07-14T14:01:21.826Z,4.05
2023-07-14T14:03:51.726Z,4.30
2023-07-14T14:06:21.613Z,3.80
2023-07-14T14:08:51.184Z,4.00
2023-07-14T14:11:19.255Z,3.58
2023-07-14T14:13:46.982Z,3.78
2023-07-14T14:16:18.415Z,4.13
2023-07-14T14:18:50.543Z,4.30
2023-07-14T14:21:19.144Z,4.80
2023-07-14T14:23:47.707Z,4.40
2023-07-14T14:26:17.373Z,4.50
2023-07-14T14:28:45.463Z,4.53
2023-07-14T14:31:14.037Z,4.32
2023-07-14T14:33:43.377Z,4.38
2023-07-14T14:36:14.342Z,3.55
2023-07-14T14:38:46.598Z,4.20
2023-07-14T14:41:23.358Z,4.15
2023-07-14T14:43:53.233Z,3.90
2023-07-14T14:46:21.320Z,4.40
2023-07-14T14:48:49.600Z,4.60
2023-07-14T14:51:17.359Z,5.05
2023-07-14T14:53:45.293Z,4.70
2023-07-14T14:56:25.154Z,5.20
2023-07-14T14:58:57.271Z,3.97
2023-07-14T15:01:30.529Z,4.53
2023-07-14T15:06:27.432Z,3.70
2023-07-14T15:08:55.440Z,4.75
2023-07-14T15:11:26.288Z,4.15
2023-07-14T15:13:54.401Z,4.63
2023-07-14T15:16:22.734Z,5.45
2023-07-14T15:18:50.535Z,4.55
2023-07-14T15:21:21.435Z,4.88
2023-07-14T15:23:50.261Z,5.20
2023-07-14T15:26:23.927Z,3.90
2023-07-14T15:28:55.006Z,4.35
2023-07-14T15:31:23.005Z,4.47
2023-07-14T15:33:50.957Z,4.10
2023-07-14T15:36:19.920Z,4.80
2023-07-14T15:38:48.208Z,3.55
2023-07-14T15:41:21.274Z,5.05
2023-07-14T15:43:52.073Z,10.80
2023-07-14T15:46:23.552Z,3.63
2023-07-14T15:48:54.051Z,2.90
2023-07-14T15:51:24.231Z,3.00
2023-07-14T15:53:56.547Z,3.67
2023-07-14T15:56:24.521Z,3.33
2023-07-14T15:58:52.653Z,3.15
2023-07-14T16:01:29.162Z,2.83
2023-07-14T16:04:00.467Z,2.78
2023-07-14T16:06:28.414Z,3.17
2023-07-14T16:08:57.323Z,2.80
2023-07-14T16:11:30.715Z,2.75
2023-07-14T16:13:59.350Z,3.35
2023-07-14T16:16:28.632Z,3.30
2023-07-14T16:18:57.334Z,3.10
2023-07-14T16:21:30.940Z,2.90
2023-07-14T16:24:00.995Z,2.78
2023-07-14T16:26:29.535Z,2.47
2023-07-14T16:28:57.878Z,2.80
2023-07-14T16:31:30.502Z,2.97
2023-07-14T16:33:58.449Z,2.72
2023-07-14T16:36:30.733Z,3.80
2023-07-14T16:39:03.023Z,2.90
2023-07-14T16:41:31.706Z,2.80
2023-07-14T16:43:59.517Z,2.72
2023-07-14T16:46:33.261Z,2.97
2023-07-14T16:49:01.539Z,2.65
2023-07-14T16:51:30.513Z,2.85
2023-07-14T16:54:00.328Z,2.83
2023-07-14T16:56:28.346Z,2.88
2023-07-14T16:58:56.356Z,3.17
2023-07-14T17:01:24.633Z,2.63
2023-07-14T17:03:55.021Z,2.80
2023-07-14T17:06:37.192Z,2.67
2023-07-14T17:09:13.854Z,2.53
2023-07-14T17:11:42.534Z,2.60
2023-07-14T17:14:13.382Z,2.65
2023-07-14T17:16:41.293Z,2.97
2023-07-14T17:19:16.115Z,3.40
2023-07-14T17:21:46.723Z,2.95
2023-07-14T17:24:16.475Z,2.58
2023-07-14T17:26:44.771Z,2.53
2023-07-14T17:29:17.535Z,2.60
2023-07-14T17:31:45.109Z,2.97
2023-07-14T17:34:14.401Z,3.10
2023-07-14T17:36:42.625Z,2.95
2023-07-14T17:39:23.030Z,2.90
2023-07-14T17:41:57.465Z,2.78
2023-07-14T17:44:26.835Z,3.50
2023-07-14T17:46:54.681Z,2.85
2023-07-14T17:49:23.912Z,2.55
2023-07-14T17:51:54.296Z,3.22
2023-07-14T17:54:25.829Z,3.22
2023-07-14T17:56:54.247Z,2.28
2023-07-14T17:59:26.201Z,2.90
2023-07-14T18:01:57.801Z,2.97
2023-07-14T18:04:27.167Z,2.70
2023-07-14T18:06:54.992Z,2.88
2023-07-14T18:09:28.025Z,2.83
2023-07-14T18:11:57.474Z,2.95
2023-07-14T18:14:25.638Z,3.40
2023-07-14T18:16:58.154Z,3.15
2023-07-14T18:19:29.547Z,2.30
2023-07-14T18:21:57.420Z,2.53
2023-07-14T18:24:37.574Z,2.38
2023-07-14T18:27:17.797Z,2.80
2023-07-14T18:29:45.711Z,2.72
2023-07-14T18:32:13.869Z,2.78
2023-07-14T18:34:45.338Z,2.50
2023-07-14T18:37:15.575Z,2.70
2023-07-14T18:39:47.421Z,2.80
2023-07-14T18:42:20.899Z,2.80
2023-07-14T18:44:49.870Z,2.80
2023-07-14T18:47:19.295Z,3.00
2023-07-14T18:49:48.936Z,3.00
2023-07-14T18:52:18.948Z,4.03
2023-07-14T18:54:48.250Z,3.58
2023-07-14T18:57:19.938Z,4.40
2023-07-14T18:59:48.585Z,3.60
2023-07-14T19:02:31.307Z,3.55
2023-07-14T19:05:08.178Z,4.60
2023-07-14T19:07:36.896Z,4.68
2023-07-14T19:10:07.196Z,3.72
2023-07-14T19:12:36.916Z,4.43
2023-07-14T19:15:18.572Z,8.70
2023-07-14T19:17:48.012Z,7.43
2023-07-14T19:20:20.265Z,3.85
2023-07-14T19:22:51.242Z,6.57
2023-07-14T19:25:21.206Z,3.75
2023-07-14T19:27:50.301Z,3.40
2023-07-14T19:30:22.624Z,4.30
2023-07-14T19:32:57.655Z,6.68
2023-07-14T19:35:27.507Z,12.32
2023-07-14T19:37:55.555Z,11.85
2023-07-14T19:40:25.298Z,11.43
2023-07-14T19:42:53.464Z,9.07
2023-07-14T19:45:25.877Z,6.93
2023-07-14T19:47:53.980Z,6.07
2023-07-14T19:50:23.630Z,6.80
2023-07-14T19:52:53.503Z,9.43
2023-07-14T19:55:23.819Z,10.07
2023-07-14T19:57:53.253Z,9.15
2023-07-14T20:00:23.493Z,11.63
2023-07-14T20:02:52.865Z,15.48
2023-07-14T20:05:25.489Z,13.15
2023-07-14T20:07:55.432Z,10.32
2023-07-14T20:10:24.429Z,9.98
2023-07-14T20:12:53.792Z,8.02
2023-07-14T20:15:24.971Z,6.15
2023-07-14T20:17:53.609Z,6.65
2023-07-14T20:20:21.484Z,4.70
2023-07-14T20:22:52.740Z,5.95
2023-07-14T20:25:23.317Z,12.63
2023-07-14T20:27:51.114Z,14.48
2023-07-14T20:30:21.076Z,12.77
2023-07-14T20:32:49.620Z,10.60
2023-07-14T20:35:19.797Z,8.80
2023-07-14T20:37:49.586Z,7.15
2023-07-14T20:40:19.907Z,6.03
2023-07-14T20:42:49.124Z,8.07
2023-07-14T20:45:19.147Z,8.73
2023-07-14T20:47:47.598Z,9.00
2023-07-14T20:50:16.817Z,7.93
2023-07-14T20:52:47.990Z,5.95
2023-07-14T20:55:27.026Z,9.77
2023-07-14T20:57:56.358Z,10.52
2023-07-14T21:00:24.609Z,5.03
2023-07-14T21:02:53.056Z,9.40
2023-07-14T21:05:21.259Z,7.72
2023-07-14T21:07:49.034Z,7.05
2023-07-14T21:10:18.155Z,11.55
2023-07-14T21:12:47.074Z,8.70
2023-07-14T21:15:18.339Z,6.53
2023-07-14T21:17:46.350Z,6.10
2023-07-14T21:20:15.707Z,4.20
2023-07-14T21:22:44.565Z,3.78
2023-07-14T21:25:16.176Z,4.40
2023-07-14T21:27:44.210Z,3.90
2023-07-14T21:30:12.926Z,3.78
2023-07-14T21:32:42.406Z,3.83
2023-07-14T21:35:20.309Z,3.30
2023-07-14T21:37:48.772Z,3.25
2023-07-14T21:40:18.025Z,4.93
2023-07-14T21:42:48.202Z,5.60
2023-07-14T21:45:17.931Z,6.25
2023-07-14T21:47:49.063Z,5.00
2023-07-14T21:50:17.211Z,4.43
2023-07-14T21:52:52.193Z,3.80
2023-07-14T21:55:20.254Z,4.18
2023-07-14T21:57:48.008Z,3.35
2023-07-14T22:00:18.225Z,3.60
2023-07-14T22:02:47.707Z,9.68
2023-07-14T22:05:16.891Z,6.68
2023-07-14T22:07:45.830Z,8.13
2023-07-14T22:10:18.204Z,5.53
2023-07-14T22:12:46.108Z,6.93
2023-07-14T22:15:22.046Z,5.93
2023-07-14T22:17:52.592Z,6.35
2023-07-14T22:20:22.280Z,4.93
2023-07-14T22:22:50.261Z,4.82
2023-07-14T22:25:18.325Z,3.53
2023-07-14T22:27:46.093Z,3.67
2023-07-14T22:30:15.017Z,4.80
2023-07-14T22:32:47.517Z,6.15
2023-07-14T22:35:17.072Z,5.87
2023-07-14T22:37:46.435Z,5.47
2023-07-14T22:40:15.503Z,4.80
2023-07-14T22:42:44.063Z,4.47
2023-07-14T22:45:14.360Z,3.90
2023-07-14T22:47:44.220Z,4.30
2023-07-14T22:50:15.011Z,4.80
2023-07-14T22:52:45.105Z,10.93
2023-07-14T22:55:17.987Z,19.70
2023-07-14T22:57:47.631Z,20.65
2023-07-14T23:00:17.886Z,17.83
2023-07-14T23:02:47.048Z,15.20
2023-07-14T23:05:17.023Z,10.88
2023-07-14T23:07:48.301Z,8.35
2023-07-14T23:10:16.556Z,6.72
2023-07-14T23:12:44.362Z,6.80
2023-07-14T23:15:17.163Z,6.30
2023-07-14T23:17:45.945Z,5.53
2023-07-14T23:20:15.595Z,4.93
2023-07-14T23:22:43.848Z,4.50
2023-07-14T23:25:21.680Z,4.85
2023-07-14T23:27:49.567Z,4.65
2023-07-14T23:30:17.881Z,4.00
2023-07-14T23:32:45.729Z,4.15
2023-07-14T23:35:17.601Z,4.03
2023-07-14T23:37:45.726Z,3.80
2023-07-14T23:40:15.770Z,3.45
2023-07-14T23:42:45.855Z,3.60
2023-07-14T23:45:20.219Z,3.65
2023-07-14T23:47:48.373Z,3.70
2023-07-14T23:50:16.846Z,3.88
2023-07-14T23:52:44.900Z,3.08
2023-07-14T23:55:17.830Z,3.30
2023-07-14T23:57:47.228Z,3.17
